Time;durP1;ratioP1;P1;durP2;ratioP2;P2;SDS_P1;SDS_P2;PMS_P1;PMS_P2;Temp;Humidity;BMP_temperature;BMP_pressure;BME280_temperature;BME280_humidity;BME280_pressure;Samples;Min_cycle;Max_cycle;Signal;HPM_P1;HPM_P2
2021/11/19 00:01:02;;;;;;;26.27;18.63;;;3.70;85.40;;;1.74;96.86;97380.81;4935148;28;20036;-60
2021/11/19 00:03:28;;;;;;;29.42;19.80;;;3.70;85.30;;;1.73;97.27;97384.34;4933987;28;20032;-61
2021/11/19 00:05:54;;;;;;;26.40;18.60;;;3.70;85.10;;;1.73;97.07;97388.69;4946100;28;20035;-60
2021/11/19 00:08:27;;;;;;;30.27;21.02;;;3.70;85.00;;;1.73;97.60;97384.34;4917857;29;20040;-62
2021/11/19 00:10:55;;;;;;;27.02;19.45;;;3.70;85.00;;;1.71;97.42;97370.66;4933887;28;20042;-63
2021/11/19 00:13:21;;;;;;;30.30;20.02;;;3.70;85.20;;;1.69;97.40;97377.69;4936883;28;20050;-62
2021/11/19 00:15:47;;;;;;;27.92;19.25;;;3.60;85.20;;;1.68;96.97;97378.63;4936553;28;20074;-61
2021/11/19 00:18:13;;;;;;;27.70;18.23;;;3.60;85.20;;;1.68;97.09;97390.78;4936968;28;20040;-62
2021/11/19 00:20:39;;;;;;;25.48;18.33;;;3.60;85.30;;;1.67;96.83;97397.72;4917186;29;20035;-61
2021/11/19 00:23:05;;;;;;;27.13;18.83;;;3.70;85.10;;;1.68;97.23;97401.97;4909373;28;20451;-61
2021/11/19 00:25:31;;;;;;;25.60;18.17;;;3.70;85.10;;;1.68;96.97;97401.97;4952590;28;20455;-61
2021/11/19 00:27:57;;;;;;;29.02;18.92;;;3.70;84.90;;;1.67;96.90;97399.50;4918405;28;20051;-61
2021/11/19 00:30:24;;;;;;;27.30;18.98;;;3.60;84.90;;;1.65;97.22;97402.19;4924031;28;20557;-61
2021/11/19 00:32:50;;;;;;;25.67;17.67;;;3.60;85.30;;;1.66;96.84;97401.25;4918548;29;20082;-62
2021/11/19 00:35:16;;;;;;;29.63;19.05;;;3.70;85.10;;;1.65;97.31;97391.81;4932599;28;20094;-60
2021/11/19 00:37:42;;;;;;;27.83;18.63;;;3.70;85.10;;;1.65;97.51;97393.56;4900868;29;20036;-61
2021/11/19 00:40:17;;;;;;;27.13;18.63;;;3.70;85.00;;;1.65;97.48;97386.63;4935993;28;20046;-61
2021/11/19 00:42:43;;;;;;;26.20;17.40;;;3.60;85.00;;;1.65;97.33;97391.00;4936817;28;20050;-61
2021/11/19 00:45:08;;;;;;;25.08;18.00;;;3.60;85.20;;;1.64;97.27;97403.13;4936041;28;20035;-62
2021/11/19 00:47:34;;;;;;;24.60;17.58;;;3.60;84.80;;;1.63;96.94;97393.69;4919991;29;20741;-62
2021/11/19 00:50:03;;;;;;;24.58;17.73;;;3.60;84.60;;;1.62;96.45;97389.44;4924694;28;20559;-61
2021/11/19 00:52:29;;;;;;;24.70;17.65;;;3.60;84.40;;;1.61;96.17;97390.38;4918572;29;20049;-63
2021/11/19 00:54:55;;;;;;;27.98;18.35;;;3.70;84.30;;;1.62;96.92;97386.00;4951810;28;20051;-62
2021/11/19 00:57:21;;;;;;;27.48;18.70;;;3.60;84.50;;;1.59;97.00;97388.81;4899835;29;20051;-62
2021/11/19 00:59:46;;;;;;;30.48;20.02;;;3.60;84.80;;;1.54;96.93;97383.91;4932549;28;20088;-62
2021/11/19 01:02:17;;;;;;;28.83;19.55;;;3.40;85.50;;;1.50;97.19;97385.03;4935477;28;20027;-62
2021/11/19 01:04:42;;;;;;;29.77;19.47;;;3.40;85.60;;;1.50;97.10;97390.22;4920159;29;20035;-62
2021/11/19 01:07:08;;;;;;;29.23;19.80;;;3.40;85.30;;;1.47;97.59;97383.47;4934536;28;20062;-62
2021/11/19 01:09:39;;;;;;;26.58;18.67;;;3.40;85.50;;;1.47;96.83;97387.84;4918319;29;20035;-62
2021/11/19 01:12:11;;;;;;;28.00;19.08;;;3.50;85.20;;;1.46;97.70;97389.59;4965945;28;20023;-63
2021/11/19 01:14:51;;;;;;;26.30;18.83;;;3.50;85.10;;;1.47;97.40;97387.84;4922679;28;20090;-62
2021/11/19 01:17:22;;;;;;;28.98;19.65;;;3.50;85.00;;;1.47;97.48;97393.03;4956001;28;20035;-62
2021/11/19 01:20:16;;;;;;;26.67;18.73;;;3.50;85.30;;;1.48;97.78;97399.88;4907378;29;20511;-62
2021/11/19 01:22:44;;;;;;;27.13;18.63;;;3.50;85.40;;;1.45;97.62;97387.94;4905298;29;20050;-61
2021/11/19 01:25:15;;;;;;;27.42;17.88;;;3.50;85.30;;;1.47;97.79;97395.63;4934931;28;20035;-62
2021/11/19 01:27:41;;;;;;;39.75;19.85;;;3.50;85.10;;;1.47;97.17;97393.03;4901043;29;20039;-62
2021/11/19 01:30:09;;;;;;;66.63;20.80;;;3.50;85.40;;;1.42;97.67;97393.34;4945348;28;20062;-62
2021/11/19 01:32:34;;;;;;;34.72;20.42;;;3.40;86.00;;;1.39;98.00;97393.53;4949065;28;20115;-62
2021/11/19 01:35:00;;;;;;;30.50;19.98;;;3.30;86.30;;;1.39;97.92;97384.94;4920570;28;20055;-62
2021/11/19 01:37:27;;;;;;;37.42;19.52;;;3.40;86.10;;;1.41;98.50;97388.25;4949639;28;20028;-62
2021/11/19 01:39:53;;;;;;;43.70;20.17;;;3.40;85.90;;;1.40;98.12;97394.38;4965914;28;20031;-62
2021/11/19 01:42:36;;;;;;;29.83;20.02;;;3.40;86.10;;;1.39;98.39;97400.50;4934937;28;20042;-61
2021/11/19 01:45:24;;;;;;;35.00;19.95;;;3.40;86.10;;;1.41;98.80;97388.25;4924764;28;20131;-63
2021/11/19 01:47:53;;;;;;;52.60;19.30;;;3.50;85.70;;;1.37;98.36;97385.03;4932454;28;20056;-62
2021/11/19 01:50:31;;;;;;;47.42;19.27;;;3.40;85.70;;;1.34;98.34;97387.81;4937713;28;20125;-61
2021/11/19 01:53:26;;;;;;;51.70;18.65;;;3.20;86.00;;;1.30;99.12;97390.69;4946824;28;20123;-62
2021/11/19 01:56:12;;;;;;;32.42;18.83;;;3.10;86.30;;;1.28;98.72;97387.38;4966390;23;20457;-65
2021/11/19 01:58:43;;;;;;;50.60;17.58;;;3.20;86.20;;;1.23;98.27;97385.94;4963980;28;20054;-65
2021/11/19 02:01:23;;;;;;;32.72;18.73;;;3.10;85.90;;;1.20;98.33;97393.91;4953219;28;20149;-65
2021/11/19 02:03:54;;;;;;;78.97;18.23;;;3.10;86.20;;;1.19;98.09;97401.78;4969907;28;20041;-65
2021/11/19 02:06:29;;;;;;;25.55;18.38;;;3.10;85.80;;;1.14;98.64;97404.66;4935428;28;20495;-65
2021/11/19 02:08:55;;;;;;;26.95;18.20;;;3.10;86.30;;;1.12;97.98;97406.50;4934907;28;20074;-65
2021/11/19 02:11:44;;;;;;;23.95;17.65;;;3.10;86.30;;;1.13;98.74;97410.78;4935175;28;20035;-65
2021/11/19 02:14:13;;;;;;;28.23;16.63;;;3.10;85.80;;;1.14;98.13;97421.97;4934214;28;20391;-65
2021/11/19 02:16:56;;;;;;;30.25;17.75;;;3.10;85.70;;;1.12;98.30;97419.47;4950415;28;20051;-65
2021/11/19 02:19:29;;;;;;;25.95;17.20;;;3.20;85.60;;;1.13;98.38;97423.75;4919167;29;20039;-65
2021/11/19 02:22:09;;;;;;;28.10;17.05;;;3.20;85.50;;;1.13;98.11;97413.38;4950288;28;20031;-65
2021/11/19 02:24:52;;;;;;;32.72;17.52;;;3.10;85.50;;;1.11;98.45;97402.25;4935887;28;20136;-64
2021/11/19 02:27:40;;;;;;;36.88;16.67;;;3.20;85.40;;;1.11;98.71;97406.59;4934681;28;20477;-64
2021/11/19 02:30:16;;;;;;;26.67;17.27;;;3.10;85.30;;;1.10;98.42;97398.00;4933603;28;20032;-64
2021/11/19 02:32:48;;;;;;;29.40;17.23;;;3.20;85.30;;;1.11;97.88;97402.25;4931351;28;20139;-64
2021/11/19 02:35:24;;;;;;;30.33;16.35;;;3.10;85.00;;;1.09;97.87;97404.09;4943562;28;20765;-64
2021/11/19 02:38:00;;;;;;;30.83;17.08;;;3.10;85.00;;;1.09;98.00;97413.66;4949750;28;20031;-65
2021/11/19 02:40:30;;;;;;;33.38;16.70;;;3.10;84.80;;;1.08;97.73;97414.56;4920296;28;20032;-65
2021/11/19 02:43:45;;;;;;;32.53;16.00;;;3.10;84.70;;;1.07;97.68;97403.38;4917301;28;20035;-65
2021/11/19 02:46:25;;;;;;;24.17;15.18;;;3.10;84.60;;;1.05;98.01;97407.00;4942466;28;20042;-65
2021/11/19 02:48:51;;;;;;;22.70;15.90;;;3.10;84.70;;;1.05;97.02;97399.22;4915609;28;20103;-65
2021/11/19 02:51:17;;;;;;;27.17;15.18;;;3.10;84.70;;;1.04;97.11;97401.00;4949585;28;20046;-64
2021/11/19 02:53:44;;;;;;;20.65;16.13;;;3.10;84.80;;;1.06;96.94;97412.09;4949769;28;20040;-65
2021/11/19 02:56:10;;;;;;;21.75;16.40;;;3.10;84.70;;;1.06;97.60;97411.25;4950273;28;20047;-64
2021/11/19 02:58:47;;;;;;;22.67;15.73;;;3.10;84.70;;;1.08;97.61;97415.41;4946563;28;20111;-65
2021/11/19 03:01:25;;;;;;;21.13;15.82;;;3.10;84.70;;;1.08;97.93;97407.63;4942430;28;20050;-64
2021/11/19 03:04:00;;;;;;;22.55;17.10;;;3.20;84.80;;;1.11;97.77;97402.25;4941128;28;20039;-64
2021/11/19 03:06:26;;;;;;;20.80;16.45;;;3.20;84.90;;;1.14;97.85;97391.72;4957364;28;20069;-64
2021/11/19 03:08:52;;;;;;;22.83;16.27;;;3.30;84.60;;;1.15;98.11;97395.97;4956498;28;20035;-64
2021/11/19 03:11:17;;;;;;;21.98;16.33;;;3.20;84.90;;;1.13;97.41;97389.19;4939641;28;20039;-65
2021/11/19 03:13:43;;;;;;;23.20;16.65;;;3.20;84.90;;;1.14;97.40;97390.88;4939950;28;20054;-64
2021/11/19 03:16:09;;;;;;;21.48;16.80;;;3.20;84.80;;;1.15;97.68;97395.13;4925066;29;20101;-64
2021/11/19 03:18:35;;;;;;;23.23;17.23;;;3.20;84.70;;;1.16;97.95;97395.03;4937763;28;20043;-64
2021/11/19 03:21:12;;;;;;;23.83;17.70;;;3.20;84.80;;;1.13;97.57;97400.41;4940633;28;20141;-64
2021/11/19 03:23:39;;;;;;;23.00;16.67;;;3.10;84.90;;;1.14;97.82;97402.09;4924046;28;20032;-64
2021/11/19 03:26:05;;;;;;;24.48;17.58;;;3.20;85.00;;;1.16;97.52;97394.19;4956369;28;20031;-65
2021/11/19 03:28:31;;;;;;;22.90;16.77;;;3.20;85.00;;;1.15;98.15;97387.38;4956026;28;20122;-64
2021/11/19 03:31:02;;;;;;;27.80;19.13;;;3.20;85.40;;;1.14;98.63;97383.94;4938263;28;20276;-64
2021/11/19 03:33:30;;;;;;;30.08;20.35;;;3.20;86.20;;;1.14;98.62;97389.13;4955536;28;20514;-64
2021/11/19 03:35:56;;;;;;;30.15;20.30;;;3.10;86.60;;;1.20;98.95;97386.13;4956123;28;20043;-65
2021/11/19 03:38:24;;;;;;;27.73;19.55;;;3.30;86.60;;;1.22;98.79;97389.44;4922798;29;20035;-65
2021/11/19 03:40:50;;;;;;;29.02;18.77;;;3.40;86.20;;;1.25;99.46;97383.22;4951569;28;20038;-65
2021/11/19 03:43:26;;;;;;;26.67;18.48;;;3.40;85.90;;;1.28;99.61;97392.56;4955955;28;20046;-64
2021/11/19 03:45:56;;;;;;;27.33;19.17;;;3.40;86.00;;;1.31;99.37;97392.34;4951421;28;20039;-64
2021/11/19 03:48:22;;;;;;;26.10;19.43;;;3.40;85.80;;;1.29;98.82;97378.66;4939970;29;20038;-64
2021/11/19 03:50:54;;;;;;;27.30;20.10;;;3.40;85.70;;;1.30;99.31;97390.69;4954906;28;20043;-64
2021/11/19 03:53:22;;;;;;;27.85;19.23;;;3.40;85.90;;;1.30;99.04;97390.69;4955302;28;20031;-64
2021/11/19 03:55:49;;;;;;;27.55;18.67;;;3.30;85.80;;;1.29;99.21;97379.50;4936936;28;20058;-64
2021/11/19 03:58:23;;;;;;;24.00;17.92;;;3.40;85.60;;;1.33;99.18;97387.91;4938158;28;20107;-65
2021/11/19 04:00:53;;;;;;;21.38;16.65;;;3.40;85.20;;;1.26;98.63;97376.28;4946523;28;20047;-64
2021/11/19 04:03:19;;;;;;;19.70;15.03;;;3.30;85.00;;;1.26;97.59;97384.06;4924389;28;20411;-64
2021/11/19 04:05:45;;;;;;;22.27;15.93;;;3.20;84.90;;;1.19;97.58;97379.28;4955449;28;20043;-64
2021/11/19 04:08:11;;;;;;;25.17;16.63;;;3.10;85.00;;;1.19;97.57;97381.03;4951629;28;20039;-64
2021/11/19 04:10:37;;;;;;;21.75;15.38;;;3.20;84.90;;;1.12;97.55;97375.41;4952335;28;20511;-65
2021/11/19 04:13:03;;;;;;;21.77;16.08;;;3.10;85.00;;;1.10;97.84;97376.44;4919026;28;20032;-65
2021/11/19 04:15:36;;;;;;;19.38;15.63;;;3.10;85.00;;;1.08;97.69;97379.13;4916760;29;20086;-64
2021/11/19 04:18:02;;;;;;;18.80;15.20;;;3.10;84.90;;;1.07;97.86;97380.06;4922589;29;20171;-64
2021/11/19 04:20:28;;;;;;;20.45;15.70;;;3.00;84.60;;;1.03;97.42;97385.53;4933474;28;20039;-65
2021/11/19 04:22:54;;;;;;;21.42;15.85;;;3.10;84.80;;;1.02;97.03;97387.31;4934808;28;20036;-64
2021/11/19 04:25:22;;;;;;;20.65;15.02;;;3.00;84.80;;;0.99;97.27;97382.31;4952472;28;20039;-64
2021/11/19 04:27:47;;;;;;;20.63;15.65;;;3.00;84.60;;;0.99;97.18;97384.09;4918064;29;20039;-64
2021/11/19 04:30:23;;;;;;;21.45;16.33;;;3.10;84.50;;;0.97;97.71;97379.00;4937012;28;20521;-66
2021/11/19 04:32:49;;;;;;;22.00;16.02;;;3.00;84.80;;;0.93;97.25;97377.53;4935004;28;20051;-65
2021/11/19 04:35:15;;;;;;;20.55;15.40;;;2.90;84.80;;;0.90;97.59;97381.13;4918825;28;20474;-68
2021/11/19 04:37:41;;;;;;;22.52;16.67;;;2.90;85.10;;;0.90;97.81;97378.53;4948095;28;20044;-66
2021/11/19 04:40:09;;;;;;;21.23;15.77;;;2.90;85.10;;;0.88;97.53;97387.34;4951481;28;20169;-65
2021/11/19 04:42:35;;;;;;;22.65;16.42;;;2.90;84.90;;;0.79;97.61;97375.00;4902627;29;20031;-67
2021/11/19 04:45:01;;;;;;;21.63;15.90;;;2.80;85.20;;;0.85;97.70;97390.13;4914083;28;20214;-66
2021/11/19 04:47:26;;;;;;;23.10;16.55;;;2.90;85.20;;;0.77;97.90;97364.72;4935826;28;20035;-66
2021/11/19 04:49:52;;;;;;;24.40;17.90;;;2.90;85.00;;;0.79;97.35;97380.16;4929522;28;20111;-66
2021/11/19 04:52:18;;;;;;;25.92;18.05;;;2.80;85.20;;;0.80;97.83;97381.84;4936056;28;20426;-65
2021/11/19 04:54:44;;;;;;;25.83;18.05;;;2.80;85.80;;;0.78;98.17;97368.16;4952080;28;20582;-65
2021/11/19 04:57:10;;;;;;;24.88;17.55;;;2.80;85.50;;;0.76;98.03;97375.19;4935775;28;20507;-65
2021/11/19 04:59:36;;;;;;;26.92;18.35;;;2.80;85.50;;;0.75;98.11;97374.34;4928377;29;20523;-65
2021/11/19 05:02:14;;;;;;;25.80;18.45;;;2.70;85.70;;;0.72;98.34;97371.13;4919438;29;20103;-65
2021/11/19 05:04:40;;;;;;;27.77;19.33;;;2.60;86.00;;;0.66;97.96;97368.91;4949223;28;20038;-65
2021/11/19 05:07:06;;;;;;;27.50;17.92;;;2.50;86.40;;;0.66;97.87;97368.91;4937525;28;20039;-65
2021/11/19 05:09:32;;;;;;;23.92;17.10;;;2.60;86.50;;;0.66;98.58;97374.09;4916613;29;20024;-65
2021/11/19 05:12:15;;;;;;;25.42;17.42;;;2.60;86.20;;;0.66;99.04;97361.13;4934094;28;20459;-66
2021/11/19 05:14:41;;;;;;;26.45;17.30;;;2.70;85.90;;;0.65;98.24;97362.06;4917351;29;20075;-65
2021/11/19 05:17:08;;;;;;;24.60;17.08;;;2.60;86.00;;;0.61;98.51;97351.09;4936724;28;20039;-65
2021/11/19 05:19:34;;;;;;;25.88;17.95;;;2.60;86.20;;;0.60;98.91;97355.44;4931710;28;20031;-66
2021/11/19 05:21:59;;;;;;;25.17;17.90;;;2.70;86.40;;;0.54;98.79;97337.69;4936053;28;20038;-66
2021/11/19 05:24:25;;;;;;;24.67;16.75;;;2.60;86.40;;;0.59;98.69;97360.72;4934871;28;20031;-65
2021/11/19 05:26:51;;;;;;;28.83;18.23;;;2.60;86.50;;;0.59;98.52;97348.59;4950169;28;20062;-65
2021/11/19 05:29:18;;;;;;;29.95;18.63;;;2.60;86.40;;;0.61;99.08;97344.16;4935453;28;20127;-65
2021/11/19 05:31:44;;;;;;;26.50;18.63;;;2.60;86.40;;;0.59;99.25;97351.19;4932168;28;20031;-66
2021/11/19 05:34:11;;;;;;;27.30;17.75;;;2.50;86.90;;;0.56;98.61;97348.78;4932067;28;20548;-65
2021/11/19 05:36:36;;;;;;;31.13;21.70;;;2.50;87.00;;;0.57;98.94;97354.78;4937839;28;20090;-65
2021/11/19 05:39:03;;;;;;;26.67;18.20;;;2.50;86.80;;;0.58;99.40;97357.28;4949337;28;20511;-65
2021/11/19 05:41:29;;;;;;;29.45;20.75;;;2.60;86.40;;;0.59;99.45;97358.13;4919287;29;20036;-65
2021/11/19 05:43:55;;;;;;;23.85;17.23;;;2.60;86.30;;;0.60;99.00;97365.78;4950720;28;20464;-66
2021/11/19 05:46:23;;;;;;;23.33;15.93;;;2.60;86.30;;;0.56;99.03;97364.31;4935378;28;20142;-69
2021/11/19 05:48:50;;;;;;;24.92;17.52;;;2.50;86.40;;;0.50;99.33;97361.28;4934590;28;20490;-65
2021/11/19 05:51:17;;;;;;;25.90;17.80;;;2.40;86.90;;;0.48;99.25;97365.75;4928651;28;20036;-69
2021/11/19 05:53:43;;;;;;;26.75;17.88;;;2.40;87.50;;;0.46;99.38;97363.25;4916235;28;20409;-66
2021/11/19 05:56:10;;;;;;;25.02;17.55;;;2.40;87.40;;;0.47;100.00;97374.44;4935320;28;20141;-66
2021/11/19 05:58:36;;;;;;;25.00;17.08;;;2.40;87.30;;;0.44;100.00;97370.25;4935138;28;20127;-67
2021/11/19 06:01:10;;;;;;;25.75;18.02;;;2.30;87.50;;;0.41;100.00;97375.63;4931444;28;20518;-67
2021/11/19 06:03:37;;;;;;;27.88;18.58;;;2.20;87.60;;;0.39;100.00;97374.88;4916018;29;20126;-66
2021/11/19 06:06:06;;;;;;;31.00;19.73;;;2.30;87.60;;;0.38;100.00;97375.81;4931241;28;20159;-66
2021/11/19 06:08:32;;;;;;;30.15;19.83;;;2.30;87.80;;;0.41;100.00;97375.63;4931705;28;20040;-65
2021/11/19 06:11:01;;;;;;;30.48;20.42;;;2.30;87.50;;;0.41;100.00;97385.97;4947774;28;20027;-67
2021/11/19 06:13:45;;;;;;;32.22;19.13;;;2.30;87.40;;;0.42;99.94;97386.81;4930037;28;20490;-68
2021/11/19 06:16:18;;;;;;;30.80;17.58;;;2.40;87.50;;;0.38;100.00;97390.50;4945026;28;20053;-68
2021/11/19 06:18:48;;;;;;;26.92;18.20;;;2.30;87.50;;;0.39;100.00;97395.59;4922269;28;20050;-64
2021/11/19 06:21:24;;;;;;;26.40;18.45;;;2.40;87.50;;;0.43;100.00;97397.06;4944531;28;20031;-65
2021/11/19 06:23:53;;;;;;;36.35;23.75;;;2.50;87.40;;;0.48;100.00;97410.56;4923182;28;20073;-65
2021/11/19 06:26:22;;;;;;;62.50;42.58;;;2.60;87.40;;;0.48;100.00;97402.81;4947803;28;20035;-65
2021/11/19 06:28:50;;;;;;;32.67;22.90;;;2.70;86.90;;;0.58;100.00;97414.25;4919367;29;20039;-68
2021/11/19 06:31:20;;;;;;;26.15;18.63;;;2.80;86.60;;;0.60;100.00;97416.75;4926393;28;20043;-69
2021/11/19 06:33:46;;;;;;;24.37;16.97;;;2.90;86.30;;;0.68;100.00;97435.25;4926475;28;20043;-68
2021/11/19 06:36:12;;;;;;;24.30;15.70;;;2.90;86.00;;;0.73;100.00;97422.00;4948829;28;20039;-67
2021/11/19 06:38:39;;;;;;;23.90;16.52;;;2.90;85.90;;;0.75;100.00;97425.31;4924632;28;20047;-67
2021/11/19 06:41:05;;;;;;;21.63;15.85;;;3.00;85.60;;;0.77;100.00;97426.06;4921480;28;20626;-68
2021/11/19 06:43:31;;;;;;;21.98;15.70;;;3.10;85.30;;;0.84;99.81;97435.94;4937584;28;20044;-71
2021/11/19 06:45:57;;;;;;;23.20;16.30;;;3.10;85.20;;;0.85;100.00;97431.56;4914962;29;20519;-67
2021/11/19 06:48:23;;;;;;;25.00;16.63;;;3.10;85.00;;;0.88;99.75;97431.38;4917215;29;20078;-71
2021/11/19 06:50:49;;;;;;;23.48;16.40;;;3.20;84.90;;;0.93;100.00;97437.13;4929881;28;20091;-72
2021/11/19 06:53:14;;;;;;;22.73;16.67;;;3.20;84.70;;;0.93;99.25;97429.34;4928150;28;20039;-68
2021/11/19 06:55:40;;;;;;;25.92;17.98;;;3.20;84.60;;;0.96;99.28;97429.16;4935186;28;20027;-67
2021/11/19 06:58:07;;;;;;;25.42;17.38;;;3.20;85.00;;;1.00;99.90;97430.63;4958831;28;20039;-66
2021/11/19 07:00:37;;;;;;;26.23;17.08;;;3.30;85.30;;;1.04;99.82;97431.25;4933890;28;20126;-67
2021/11/19 07:03:03;;;;;;;29.35;19.15;;;3.30;85.20;;;1.05;99.90;97428.56;4913583;28;20032;-68
2021/11/19 07:05:29;;;;;;;33.28;21.10;;;3.30;84.80;;;1.04;99.96;97426.91;4941432;28;20039;-72
2021/11/19 07:07:54;;;;;;;29.27;20.02;;;3.10;85.30;;;1.03;99.95;97417.47;4942097;28;20082;-68
2021/11/19 07:10:22;;;;;;;31.35;19.70;;;3.10;85.60;;;1.04;99.93;97411.34;4917244;29;20072;-67
2021/11/19 07:12:48;;;;;;;27.75;19.10;;;3.10;85.80;;;1.06;99.74;97419.03;4949701;28;20075;-68
2021/11/19 07:15:16;;;;;;;34.05;21.83;;;3.10;86.00;;;1.04;99.91;97413.94;4946670;28;20039;-71
2021/11/19 07:17:45;;;;;;;30.70;21.13;;;3.10;86.20;;;1.05;100.00;97412.19;4917890;29;20043;-68
2021/11/19 07:20:12;;;;;;;33.75;22.48;;;3.10;86.40;;;1.10;100.00;97415.31;4933966;28;20098;-70
2021/11/19 07:22:40;;;;;;;38.92;24.92;;;3.20;86.40;;;1.17;100.00;97417.44;4914360;29;20163;-68
2021/11/19 07:25:07;;;;;;;32.20;22.63;;;3.30;86.30;;;1.25;100.00;97424.69;4918659;28;20094;-70
2021/11/19 07:27:33;;;;;;;32.80;21.55;;;3.40;86.30;;;1.34;100.00;97428.44;4917450;28;20035;-69
2021/11/19 07:29:58;;;;;;;30.85;20.92;;;3.60;86.10;;;1.40;100.00;97438.44;4953310;28;20039;-68
2021/11/19 07:32:24;;;;;;;26.98;19.42;;;3.60;86.00;;;1.46;100.00;97440.63;4964440;28;20034;-68
2021/11/19 07:34:50;;;;;;;29.58;20.15;;;3.60;86.10;;;1.52;100.00;97448.00;4964430;28;20023;-68
2021/11/19 07:37:17;;;;;;;26.35;18.17;;;3.70;85.80;;;1.57;100.00;97443.34;4933290;28;20403;-68
2021/11/19 07:39:43;;;;;;;27.63;18.92;;;3.60;85.70;;;1.61;100.00;97452.59;4952800;28;20122;-69
2021/11/19 07:42:09;;;;;;;25.20;17.13;;;3.90;85.90;;;1.71;100.00;97447.63;4968660;28;20027;-70
2021/11/19 07:44:35;;;;;;;26.95;18.13;;;4.00;85.50;;;1.78;100.00;97449.72;4952576;28;20043;-70
2021/11/19 07:47:00;;;;;;;25.45;18.00;;;4.10;85.30;;;1.86;100.00;97456.19;4933731;28;20031;-70
2021/11/19 07:49:26;;;;;;;27.88;18.30;;;4.20;85.10;;;1.92;100.00;97456.59;4950090;28;20078;-69
2021/11/19 07:51:52;;;;;;;30.90;19.15;;;4.30;84.60;;;2.00;100.00;97454.31;4918143;29;20035;-73
2021/11/19 07:54:18;;;;;;;28.20;18.98;;;4.40;84.70;;;2.10;100.00;97460.56;4927843;29;20484;-69
2021/11/19 07:56:45;;;;;;;30.38;19.30;;;4.60;84.40;;;2.19;100.00;97464.28;4932362;28;20039;-67
2021/11/19 07:59:28;;;;;;;28.20;19.35;;;4.60;83.60;;;2.24;100.00;97462.19;4954202;28;20035;-68
2021/11/19 08:01:57;;;;;;;29.83;18.73;;;4.60;83.60;;;2.29;99.70;97464.50;4934323;28;20040;-72
2021/11/19 08:04:22;;;;;;;28.95;20.65;;;4.80;83.00;;;2.38;100.00;97462.09;4914228;29;20040;-69
2021/11/19 08:06:48;;;;;;;26.50;18.98;;;4.80;83.20;;;2.48;99.68;97464.91;4933192;28;20063;-69
2021/11/19 08:09:14;;;;;;;30.55;21.48;;;5.00;82.70;;;2.55;99.50;97457.53;4917877;28;20078;-70
2021/11/19 08:11:40;;;;;;;29.92;21.13;;;5.10;82.40;;;2.63;99.17;97463.00;4920616;29;20058;-64
2021/11/19 08:14:06;;;;;;;33.85;21.73;;;5.20;81.90;;;2.72;99.17;97465.00;4936331;28;20460;-70
2021/11/19 08:16:56;;;;;;;27.58;20.55;;;5.40;82.10;;;2.84;99.19;97466.72;4960319;28;20446;-68
2021/11/19 08:19:44;;;;;;;32.28;22.17;;;5.50;81.80;;;2.93;99.25;97471.25;4961853;28;20513;-68
2021/11/19 08:22:10;;;;;;;24.60;17.90;;;5.70;81.70;;;3.07;99.19;97463.31;4946467;28;20663;-69
2021/11/19 08:24:36;;;;;;;23.38;16.98;;;5.90;80.70;;;3.15;98.61;97464.53;4932699;28;20120;-70
2021/11/19 08:27:10;;;;;;;24.00;17.98;;;5.80;79.60;;;3.20;97.07;97462.47;4949216;28;20039;-71
2021/11/19 08:29:36;;;;;;;27.15;18.63;;;5.70;79.50;;;3.25;97.27;97455.16;4902300;29;20035;-65
2021/11/19 08:32:05;;;;;;;25.98;19.52;;;5.90;79.60;;;3.35;97.24;97448.34;4939826;28;20570;-68
2021/11/19 08:34:30;;;;;;;27.27;18.40;;;6.10;79.60;;;3.45;96.55;97451.13;4921925;28;20631;-68
2021/11/19 08:36:56;;;;;;;25.20;19.30;;;6.10;79.40;;;3.54;97.22;97447.84;4950490;28;20035;-69
2021/11/19 08:39:25;;;;;;;27.02;21.27;;;6.40;79.10;;;3.66;97.10;97439.97;4950429;28;20569;-67
2021/11/19 08:41:50;;;;;;;29.27;20.67;;;6.50;79.00;;;3.82;96.77;97449.22;4939059;28;20740;-67
2021/11/19 08:44:16;;;;;;;22.52;16.98;;;6.70;78.40;;;3.94;96.83;97448.34;4950633;28;20043;-67
2021/11/19 08:46:44;;;;;;;24.00;15.70;;;6.90;77.60;;;4.09;96.31;97454.19;4920505;28;20400;-67
2021/11/19 08:49:13;;;;;;;21.25;16.67;;;7.10;76.80;;;4.18;95.87;97443.88;4916840;28;20039;-63
2021/11/19 08:51:40;;;;;;;20.83;16.80;;;7.20;76.50;;;4.32;95.82;97449.81;4939216;28;20031;-69
2021/11/19 08:54:08;;;;;;;18.98;15.35;;;7.60;76.10;;;4.51;95.30;97448.28;4931169;28;20051;-69
2021/11/19 08:56:37;;;;;;;19.08;15.55;;;8.00;74.70;;;4.70;95.08;97458.13;4916838;28;20028;-68
2021/11/19 08:59:04;;;;;;;16.15;14.45;;;8.20;74.00;;;4.85;94.39;97451.72;4949403;28;20043;-70
2021/11/19 09:01:30;;;;;;;16.45;14.70;;;8.20;73.80;;;5.03;93.33;97443.41;4936145;28;20426;-68
2021/11/19 09:03:55;;;;;;;16.52;14.77;;;8.50;72.80;;;5.18;92.68;97447.38;4968904;28;20038;-70
2021/11/19 09:06:21;;;;;;;17.10;14.85;;;8.60;72.70;;;5.34;93.04;97436.56;4955359;28;20039;-65
2021/11/19 09:08:48;;;;;;;19.17;16.05;;;8.70;72.10;;;5.48;91.85;97438.88;4951568;28;20042;-69
2021/11/19 09:11:16;;;;;;;17.25;14.88;;;8.80;71.20;;;5.62;91.97;97443.78;4948982;28;20101;-68
2021/11/19 09:13:42;;;;;;;18.15;15.63;;;8.90;71.00;;;5.73;90.75;97435.09;4934528;28;20039;-69
2021/11/19 09:16:10;;;;;;;17.15;15.35;;;9.10;70.70;;;5.84;90.37;97430.63;4953945;28;20047;-69
2021/11/19 09:19:32;;;;;;;17.30;14.90;;;9.20;70.50;;;6.02;88.58;97437.94;4934134;28;20046;-69
2021/11/19 09:22:17;;;;;;;18.42;14.73;;;9.40;70.00;;;6.14;89.11;97432.53;4917503;28;20368;-67
2021/11/19 09:24:43;;;;;;;16.88;15.07;;;9.50;69.50;;;6.29;89.83;97430.41;4937890;28;20078;-67
2021/11/19 09:27:12;;;;;;;16.92;15.10;;;9.90;68.80;;;6.45;88.82;97425.53;4941427;28;20040;-67
2021/11/19 09:29:51;;;;;;;17.27;14.43;;;10.10;68.30;;;6.61;88.47;97429.47;4919360;29;20106;-69
2021/11/19 09:32:18;;;;;;;16.30;14.57;;;10.20;67.80;;;6.74;88.80;97428.25;4947655;28;20044;-69
2021/11/19 09:34:47;;;;;;;17.42;15.52;;;10.40;67.40;;;6.91;87.73;97420.75;4932718;29;20122;-69
2021/11/19 09:37:14;;;;;;;17.45;15.50;;;10.50;67.10;;;7.04;87.68;97421.34;4919601;28;20027;-69
2021/11/19 09:39:42;;;;;;;18.13;16.02;;;10.70;67.10;;;7.19;87.48;97419.16;4934941;28;20407;-68
2021/11/19 09:42:33;;;;;;;19.17;15.45;;;11.00;66.20;;;7.35;85.44;97422.91;4943711;28;20089;-66
2021/11/19 09:45:41;;;;;;;18.02;15.65;;;11.40;64.90;;;7.52;84.73;97425.81;4920000;28;20036;-70
2021/11/19 09:48:36;;;;;;;17.23;15.40;;;11.30;64.70;;;7.68;84.83;97431.31;4956146;28;20058;-69
2021/11/19 09:51:33;;;;;;;18.38;15.90;;;11.40;64.70;;;7.76;84.04;97420.97;4967456;28;20087;-64
2021/11/19 09:54:26;;;;;;;23.05;18.95;;;11.10;64.80;;;7.83;83.58;97429.94;4951604;28;20039;-67
2021/11/19 09:57:15;;;;;;;18.83;16.83;;;11.00;65.80;;;7.79;84.63;97428.56;4961573;28;20859;-69
2021/11/19 10:00:03;;;;;;;21.75;18.10;;;10.70;66.50;;;7.81;82.84;97415.31;4951700;28;20507;-69
2021/11/19 10:03:14;;;;;;;20.05;17.70;;;10.60;67.00;;;7.85;82.16;97416.69;4916462;29;20408;-68
2021/11/19 10:06:07;;;;;;;20.85;18.08;;;10.60;67.50;;;7.84;82.30;97417.66;4954562;28;20031;-68
2021/11/19 10:08:49;;;;;;;22.08;18.15;;;10.50;67.40;;;7.79;82.89;97415.47;4931298;28;20047;-65
2021/11/19 10:11:46;;;;;;;21.73;18.40;;;10.40;67.60;;;7.75;82.08;97411.47;4952459;28;20039;-69
2021/11/19 10:14:29;;;;;;;21.33;18.70;;;10.30;67.80;;;7.73;81.91;97410.78;4939694;28;20051;-70
2021/11/19 10:17:11;;;;;;;20.67;18.15;;;10.10;67.80;;;7.64;81.02;97415.03;4938260;28;20044;-69
2021/11/19 10:19:41;;;;;;;19.48;17.38;;;10.10;68.10;;;7.57;82.06;97413.94;4960280;28;20058;-69
2021/11/19 10:22:35;;;;;;;20.75;17.92;;;9.90;67.70;;;7.54;81.14;97408.16;4955733;28;20079;-69
2021/11/19 10:25:20;;;;;;;20.35;18.15;;;9.90;68.50;;;7.50;80.95;97397.16;4942878;28;20034;-69
2021/11/19 10:27:53;;;;;;;19.45;17.35;;;9.90;68.50;;;7.51;82.17;97396.19;4941257;28;20047;-70
2021/11/19 10:30:40;;;;;;;21.83;17.98;;;10.10;68.70;;;7.58;81.73;97405.13;4950453;28;20050;-69
2021/11/19 10:33:31;;;;;;;23.00;18.98;;;10.40;67.40;;;7.64;81.17;97403.75;4948048;28;20502;-67